Time;durP1;ratioP1;P1;durP2;ratioP2;P2;SDS_P1;SDS_P2;PMS_P1;PMS_P2;Temp;Humidity;BMP_temperature;BMP_pressure;BME280_temperature;BME280_humidity;BME280_pressure;Samples;Min_cycle;Max_cycle;Signal;HPM_P1;HPM_P2
2023/01/05 00:01:00;;;;;;;10.10;4.03;;;16.30;62.30;17.50;100812.00;;;;5008064;28;20786;-45
2023/01/05 00:03:26;;;;;;;12.43;4.57;;;16.30;62.30;17.50;100823.00;;;;5007980;28;20160;-45
2023/01/05 00:05:52;;;;;;;11.33;4.47;;;16.30;62.30;17.40;100824.00;;;;5008023;28;20671;-45
2023/01/05 00:08:17;;;;;;;11.77;4.30;;;16.30;62.10;17.40;100832.00;;;;5008189;28;20671;-46
2023/01/05 00:24:25;;;;;;;11.57;4.53;;;16.20;62.40;17.30;100835.00;;;;5007986;28;20240;-44
2023/01/05 00:26:51;;;;;;;9.70;4.27;;;16.20;62.40;17.30;100830.00;;;;4991673;28;20184;-44
2023/01/05 00:29:17;;;;;;;8.97;4.13;;;16.10;62.40;17.20;100831.00;;;;5008042;28;20274;-45
2023/01/05 00:31:43;;;;;;;17.17;4.80;;;16.10;62.40;17.20;100846.00;;;;5007655;28;20176;-45
2023/01/05 00:34:08;;;;;;;11.17;4.20;;;16.10;62.50;17.20;100838.00;;;;5009050;28;20199;-47
2023/01/05 00:36:34;;;;;;;13.60;4.37;;;16.10;62.50;17.20;100849.00;;;;5009204;28;20186;-47
2023/01/05 00:39:00;;;;;;;13.53;5.00;;;16.10;62.40;17.20;100843.00;;;;4991559;28;20661;-46
2023/01/05 00:41:25;;;;;;;10.83;4.53;;;16.10;62.50;17.10;100836.00;;;;5007334;28;20760;-45
2023/01/05 00:43:51;;;;;;;10.67;4.20;;;16.00;63.10;17.10;100843.00;;;;4993837;28;20223;-45
2023/01/05 00:46:17;;;;;;;12.77;4.53;;;16.00;62.40;17.10;100850.00;;;;5007776;28;20206;-45
2023/01/05 00:48:42;;;;;;;9.10;3.93;;;16.00;62.30;17.20;100843.00;;;;4991132;28;20263;-47
2023/01/05 00:51:08;;;;;;;11.97;4.43;;;16.00;62.40;17.10;100704.00;;;;5007729;28;20556;-45
2023/01/05 00:53:34;;;;;;;11.83;4.47;;;16.00;62.20;17.10;100837.00;;;;5007900;28;20182;-47
2023/01/05 00:56:00;;;;;;;12.13;4.90;;;16.00;62.10;17.10;100847.00;;;;5008085;28;20250;-46
2023/01/05 00:58:25;;;;;;;11.13;4.27;;;16.00;62.10;17.10;100830.00;;;;5007581;28;20234;-45
2023/01/05 01:00:51;;;;;;;11.67;4.60;;;15.90;62.20;17.10;100830.00;;;;5007581;28;20180;-45
2023/01/05 01:03:17;;;;;;;9.80;4.10;;;15.90;62.20;17.10;100843.00;;;;5007931;28;20168;-45
2023/01/05 01:05:42;;;;;;;10.17;4.10;;;15.90;62.20;17.10;100846.00;;;;5007466;28;20249;-46
2023/01/05 01:08:08;;;;;;;11.47;4.50;;;15.90;62.20;17.00;100781.00;;;;4991538;28;20254;-46
2023/01/05 01:10:34;;;;;;;10.83;4.30;;;15.90;62.20;17.00;100780.00;;;;5007773;28;20255;-45
2023/01/05 01:13:00;;;;;;;14.30;4.60;;;15.90;62.20;17.10;100793.00;;;;5007440;28;20191;-44
2023/01/05 01:15:25;;;;;;;13.87;4.70;;;15.90;62.20;17.00;100858.00;;;;5007507;28;20198;-45
2023/01/05 01:17:51;;;;;;;13.63;4.27;;;15.90;62.20;17.00;100785.00;;;;5007430;28;20177;-45
2023/01/05 01:20:17;;;;;;;9.63;4.00;;;15.90;62.20;17.00;100856.00;;;;4991195;28;20168;-45
2023/01/05 01:22:43;;;;;;;11.57;4.30;;;15.90;63.10;17.00;100851.00;;;;5007508;28;20310;-46
2023/01/05 01:25:09;;;;;;;11.97;4.50;;;15.90;62.30;17.00;100875.00;;;;5007578;28;20270;-46
2023/01/05 01:27:35;;;;;;;13.87;4.57;;;15.90;62.30;17.00;100864.00;;;;4990868;28;20199;-44
2023/01/05 01:30:00;;;;;;;10.43;4.10;;;15.90;62.30;16.90;100780.00;;;;5007659;28;20584;-45
2023/01/05 01:32:26;;;;;;;11.73;4.03;;;15.90;62.20;16.90;100867.00;;;;4991898;28;20187;-46
2023/01/05 01:34:53;;;;;;;12.33;4.40;;;15.80;62.20;16.90;100867.00;;;;5011053;28;20695;-48
2023/01/05 01:37:19;;;;;;;8.37;4.00;;;15.80;62.50;16.90;100869.00;;;;4994271;28;20176;-45
2023/01/05 01:39:45;;;;;;;11.53;4.57;;;15.80;62.60;16.90;100784.00;;;;5010846;28;20203;-45
2023/01/05 01:42:14;;;;;;;11.57;4.43;;;15.80;62.60;16.90;100867.00;;;;5010524;28;20195;-45
2023/01/05 01:44:46;;;;;;;10.40;3.93;;;15.80;62.70;16.90;100869.00;;;;4994136;28;20640;-46
2023/01/05 01:47:45;;;;;;;12.70;4.53;;;15.70;62.60;16.90;100879.00;;;;5012096;28;20173;-44
2023/01/05 01:50:26;;;;;;;14.00;4.33;;;15.80;62.70;16.80;100785.00;;;;4995533;28;20536;-46
2023/01/05 01:52:57;;;;;;;11.77;4.20;;;15.80;62.60;16.80;100885.00;;;;4995140;28;20713;-45
2023/01/05 01:55:23;;;;;;;10.70;3.97;;;15.70;62.70;16.80;100874.00;;;;4994191;28;20273;-45
2023/01/05 01:57:49;;;;;;;10.07;4.30;;;15.70;62.60;16.70;100734.00;;;;5010067;28;20637;-48
2023/01/05 02:00:15;;;;;;;9.90;3.90;;;15.70;62.70;16.70;100895.00;;;;4994388;28;20167;-45
2023/01/05 02:02:41;;;;;;;11.10;4.07;;;15.70;62.80;16.70;100904.00;;;;4993659;28;20231;-47
2023/01/05 02:05:09;;;;;;;12.33;4.53;;;15.70;62.80;16.70;100886.00;;;;4993957;28;20203;-46
2023/01/05 02:07:38;;;;;;;13.73;4.23;;;15.70;63.00;16.70;100891.00;;;;4979758;28;20263;-45
2023/01/05 02:10:04;;;;;;;10.27;4.10;;;15.70;63.10;16.70;100888.00;;;;5020706;28;20190;-46
2023/01/05 02:12:53;;;;;;;10.70;4.03;;;15.60;63.00;16.70;100902.00;;;;5025385;28;20224;-45
2023/01/05 02:15:57;;;;;;;11.10;4.10;;;15.60;63.20;16.70;100897.00;;;;5030186;28;20249;-46
2023/01/05 02:19:20;;;;;;;13.73;4.43;;;15.60;63.20;16.70;100803.00;;;;5028901;28;20203;-46
2023/01/05 02:22:15;;;;;;;13.03;4.30;;;15.60;63.30;16.60;100884.00;;;;5044926;28;20191;-45
2023/01/05 02:25:22;;;;;;;11.47;4.50;;;15.60;63.40;16.60;100883.00;;;;5016657;28;20195;-45
2023/01/05 02:28:06;;;;;;;12.00;4.33;;;15.60;63.40;16.50;100795.00;;;;5014880;28;20214;-44
2023/01/05 02:31:06;;;;;;;11.27;4.17;;;15.60;63.60;16.50;100892.00;;;;5029963;28;20202;-47
2023/01/05 02:34:16;;;;;;;11.47;4.03;;;15.50;63.50;16.50;100888.00;;;;5030223;28;20221;-45
2023/01/05 02:37:11;;;;;;;10.00;4.40;;;15.50;63.60;16.50;100805.00;;;;5031022;28;20510;-45
2023/01/05 02:39:52;;;;;;;12.10;4.20;;;15.50;63.70;16.50;100801.00;;;;5012786;28;20236;-45
2023/01/05 02:42:26;;;;;;;10.77;4.57;;;15.50;63.80;16.50;100905.00;;;;5029146;28;20214;-46
2023/01/05 02:44:51;;;;;;;14.10;4.60;;;15.40;63.90;16.40;100899.00;;;;5013696;28;20187;-45
2023/01/05 02:47:26;;;;;;;12.67;4.77;;;15.50;63.90;16.40;100896.00;;;;5029699;28;20594;-45
2023/01/05 02:50:07;;;;;;;14.33;4.53;;;15.40;63.80;16.40;100820.00;;;;5029020;28;20240;-45
2023/01/05 02:53:07;;;;;;;12.20;4.67;;;15.40;63.90;16.40;100909.00;;;;5029226;28;20159;-46
2023/01/05 02:55:55;;;;;;;12.53;4.80;;;15.40;64.00;16.40;100911.00;;;;5024361;28;20288;-45
2023/01/05 02:58:26;;;;;;;9.57;4.40;;;15.40;63.90;16.40;100826.00;;;;5012687;28;20182;-46
2023/01/05 03:01:02;;;;;;;10.43;4.03;;;15.40;63.80;16.40;100912.00;;;;5028976;28;20167;-45
2023/01/05 03:03:48;;;;;;;12.00;4.40;;;15.40;63.70;16.40;100919.00;;;;5012406;28;20167;-46
2023/01/05 03:06:19;;;;;;;11.03;4.17;;;15.50;63.90;16.30;100900.00;;;;5029127;28;20779;-47
2023/01/05 03:08:51;;;;;;;12.47;4.30;;;15.50;63.70;16.30;100912.00;;;;5028696;28;20167;-45
2023/01/05 03:14:12;;;;;;;11.00;4.60;;;15.30;63.50;16.30;100904.00;;;;5029340;28;20296;-46
2023/01/05 03:16:38;;;;;;;18.00;5.10;;;15.40;63.50;16.30;100908.00;;;;5012487;28;20261;-47
2023/01/05 03:35:46;;;;;;;13.37;4.67;;;15.30;63.30;16.20;100834.00;;;;5028430;28;20159;-46
2023/01/05 03:38:27;;;;;;;14.53;4.83;;;15.30;63.20;16.20;100924.00;;;;5028350;28;20171;-46
2023/01/05 03:40:57;;;;;;;13.80;5.00;;;15.30;63.50;16.20;100833.00;;;;5011880;28;20270;-46
2023/01/05 03:43:23;;;;;;;12.83;4.60;;;15.30;63.40;16.20;100916.00;;;;5027868;28;20233;-45
2023/01/05 03:45:55;;;;;;;12.20;4.70;;;15.30;63.40;16.20;100843.00;;;;5031330;28;20183;-46
2023/01/05 03:48:21;;;;;;;12.20;4.63;;;15.30;63.60;16.20;100903.00;;;;5020097;28;20167;-45
2023/01/05 03:50:47;;;;;;;11.50;5.17;;;15.20;63.60;16.20;100914.00;;;;5036140;28;20209;-44
2023/01/05 03:53:13;;;;;;;13.40;4.60;;;15.20;64.20;16.20;100920.00;;;;5032100;28;20164;-45
2023/01/05 03:55:39;;;;;;;13.37;4.37;;;15.20;64.20;16.20;100916.00;;;;5011562;28;20702;-46
2023/01/05 03:58:04;;;;;;;15.23;4.97;;;15.20;64.50;16.20;100923.00;;;;5011478;28;20257;-45
2023/01/05 04:00:31;;;;;;;11.60;4.60;;;15.20;64.70;16.20;100857.00;;;;5011722;28;20244;-45
2023/01/05 04:02:57;;;;;;;12.67;4.57;;;15.20;64.90;16.10;100915.00;;;;5027963;28;20195;-45
2023/01/05 04:05:23;;;;;;;15.33;5.50;;;15.20;65.00;16.10;100937.00;;;;5011397;28;20195;-45
2023/01/05 04:07:48;;;;;;;14.93;5.27;;;15.20;65.10;16.10;100849.00;;;;5011456;28;20640;-45
2023/01/05 04:10:14;;;;;;;13.53;4.93;;;15.20;65.10;16.10;100938.00;;;;5027899;28;20652;-46
2023/01/05 04:12:40;;;;;;;14.23;4.53;;;15.20;65.20;15.90;100936.00;;;;5027670;28;20171;-46
2023/01/05 04:15:06;;;;;;;10.50;4.73;;;15.20;65.20;16.10;100902.00;;;;5011415;28;20337;-44
2023/01/05 04:17:32;;;;;;;12.17;4.43;;;15.20;65.30;16.10;100940.00;;;;4995435;28;20518;-45
2023/01/05 04:19:58;;;;;;;12.67;4.77;;;15.20;65.20;16.10;100942.00;;;;5011158;28;20209;-46
2023/01/05 04:22:24;;;;;;;13.90;4.60;;;15.20;65.20;16.10;100934.00;;;;5011073;28;20205;-45
2023/01/05 04:24:49;;;;;;;16.57;5.07;;;15.20;65.20;16.10;100867.00;;;;5011263;28;20191;-44
2023/01/05 04:27:15;;;;;;;13.97;5.07;;;15.20;65.30;16.10;100939.00;;;;5027717;28;20233;-46
2023/01/05 04:29:41;;;;;;;12.73;4.80;;;15.10;65.30;16.00;100937.00;;;;5027691;28;20167;-47
2023/01/05 04:32:07;;;;;;;16.40;4.73;;;15.20;65.40;16.00;100935.00;;;;5027644;28;20197;-45
2023/01/05 04:34:32;;;;;;;11.23;4.67;;;15.10;65.20;15.90;100931.00;;;;5027682;28;20290;-45
2023/01/05 04:36:58;;;;;;;18.93;5.13;;;15.10;65.20;16.10;100961.00;;;;4994820;28;20608;-46
2023/01/05 04:39:24;;;;;;;11.93;4.60;;;15.10;66.80;16.00;100946.00;;;;5007421;28;20194;-45
2023/01/05 04:41:49;;;;;;;11.23;4.50;;;15.10;65.60;16.00;100942.00;;;;4990043;28;20198;-46
2023/01/05 04:44:15;;;;;;;13.03;4.50;;;15.10;65.40;16.00;100869.00;;;;4991222;28;20671;-45
2023/01/05 04:46:41;;;;;;;11.13;4.50;;;15.10;65.30;16.00;100892.00;;;;4994514;28;20629;-45
2023/01/05 04:49:08;;;;;;;14.67;4.80;;;15.10;65.30;16.00;100878.00;;;;4992007;28;20164;-45
2023/01/05 04:51:34;;;;;;;12.50;4.47;;;15.20;65.50;16.00;100882.00;;;;5007353;28;20270;-45
2023/01/05 04:54:00;;;;;;;12.47;4.40;;;15.10;65.30;16.00;100947.00;;;;4995648;28;20227;-44
2023/01/05 04:56:26;;;;;;;10.70;4.20;;;15.10;65.40;16.00;100944.00;;;;5004976;28;20176;-46
2023/01/05 04:58:51;;;;;;;11.60;4.23;;;15.00;65.30;16.00;100959.00;;;;5012140;28;20183;-46
2023/01/05 05:01:17;;;;;;;13.03;4.83;;;15.10;65.50;16.00;100942.00;;;;5011529;28;20566;-45
2023/01/05 05:03:43;;;;;;;13.50;4.37;;;15.10;65.60;16.00;100858.00;;;;4991980;28;20183;-46
2023/01/05 05:06:08;;;;;;;13.10;4.63;;;15.00;65.50;16.00;100956.00;;;;4991689;28;20163;-45
2023/01/05 05:08:34;;;;;;;12.40;4.23;;;15.00;65.70;16.00;100952.00;;;;4995076;28;20175;-44
2023/01/05 05:11:00;;;;;;;14.60;4.67;;;15.00;65.80;16.00;100965.00;;;;5012894;28;20178;-45
2023/01/05 05:13:26;;;;;;;10.27;4.33;;;15.00;65.80;16.00;100959.00;;;;5011059;28;20242;-45
2023/01/05 05:15:51;;;;;;;12.43;4.23;;;14.90;65.90;16.00;100959.00;;;;4995709;28;20167;-44
2023/01/05 05:18:17;;;;;;;17.00;4.63;;;15.00;66.00;16.00;100875.00;;;;5011504;28;20560;-45
2023/01/05 05:20:43;;;;;;;13.83;4.80;;;15.00;65.90;16.00;100880.00;;;;4995335;28;20675;-44
2023/01/05 05:23:09;;;;;;;13.63;4.63;;;14.90;65.80;16.00;100888.00;;;;4978009;28;20211;-45
2023/01/05 05:25:35;;;;;;;13.67;4.80;;;15.00;66.00;16.00;100965.00;;;;4998900;28;20183;-46
2023/01/05 05:28:01;;;;;;;11.43;4.13;;;14.90;66.00;16.00;100879.00;;;;4995427;28;20186;-46
2023/01/05 05:30:26;;;;;;;12.83;4.60;;;14.90;66.00;16.00;100966.00;;;;4994909;28;20163;-45
2023/01/05 05:32:52;;;;;;;13.00;4.37;;;14.90;66.20;16.00;100887.00;;;;4994135;28;20254;-45
2023/01/05 05:35:18;;;;;;;9.03;4.00;;;14.90;66.10;16.00;100960.00;;;;4994604;28;20219;-45
2023/01/05 05:37:43;;;;;;;13.10;4.43;;;14.90;66.20;16.00;100965.00;;;;4994458;28;20176;-44
2023/01/05 05:40:10;;;;;;;12.53;4.50;;;14.90;66.30;16.00;100973.00;;;;4978336;28;20286;-43
2023/01/05 05:42:36;;;;;;;10.57;4.13;;;14.90;66.40;16.00;100980.00;;;;5010395;28;20245;-45
2023/01/05 05:45:02;;;;;;;14.17;4.60;;;14.90;66.40;16.00;100969.00;;;;5010977;28;20195;-45
2023/01/05 05:47:28;;;;;;;12.07;4.40;;;14.90;66.30;16.00;100981.00;;;;4994843;28;20233;-47
2023/01/05 05:49:54;;;;;;;10.23;4.37;;;14.90;66.40;16.10;100985.00;;;;5010894;28;20258;-44
2023/01/05 05:52:19;;;;;;;12.10;4.20;;;14.90;66.30;16.10;100988.00;;;;4977382;28;20183;-45
2023/01/05 05:54:45;;;;;;;10.43;4.17;;;14.90;67.20;16.00;100991.00;;;;4994425;28;20199;-49
2023/01/05 05:57:11;;;;;;;11.87;4.00;;;14.90;66.40;16.10;100999.00;;;;4994638;28;20203;-45
2023/01/05 05:59:36;;;;;;;9.87;4.23;;;14.90;66.40;16.10;100940.00;;;;4978603;28;20270;-45
2023/01/05 06:02:02;;;;;;;11.40;4.70;;;14.90;66.30;16.10;100998.00;;;;4994240;28;20286;-45
2023/01/05 06:04:28;;;;;;;11.30;4.50;;;14.90;66.20;16.10;100907.00;;;;5010621;28;20192;-44
2023/01/05 06:06:54;;;;;;;14.13;4.67;;;14.90;66.20;16.10;100904.00;;;;5004056;28;20718;-45
2023/01/05 06:09:19;;;;;;;10.47;4.33;;;14.90;66.00;16.10;100921.00;;;;5014044;28;20652;-46
2023/01/05 06:11:45;;;;;;;10.73;4.00;;;15.00;66.20;16.10;100995.00;;;;5013482;28;20175;-45
2023/01/05 06:14:11;;;;;;;10.63;4.20;;;15.10;66.30;16.10;101006.00;;;;5013878;28;20199;-46
2023/01/05 06:16:37;;;;;;;8.67;4.00;;;15.10;66.20;16.20;101024.00;;;;5030455;28;20250;-45
2023/01/05 06:19:02;;;;;;;10.90;4.07;;;15.10;66.20;16.10;101034.00;;;;5030048;28;20187;-46
2023/01/05 06:21:28;;;;;;;9.00;3.70;;;15.10;66.10;16.20;100930.00;;;;5012712;28;20233;-46
2023/01/05 06:23:54;;;;;;;9.00;3.93;;;15.00;65.90;16.20;101017.00;;;;5013066;28;20197;-45
2023/01/05 06:26:19;;;;;;;11.80;3.80;;;15.10;66.10;16.20;100953.00;;;;5029945;28;20163;-46
2023/01/05 06:28:45;;;;;;;9.27;3.87;;;15.00;66.10;16.20;101025.00;;;;5030532;28;20221;-46
2023/01/05 06:31:11;;;;;;;9.30;4.10;;;15.00;65.90;16.20;101015.00;;;;5029687;28;20167;-46
2023/01/05 06:33:37;;;;;;;8.17;4.13;;;15.10;66.20;16.20;100960.00;;;;5029600;28;20170;-46
2023/01/05 06:36:03;;;;;;;7.87;3.97;;;15.10;66.20;16.20;101024.00;;;;5029437;28;20173;-44
2023/01/05 06:38:29;;;;;;;10.10;3.80;;;15.10;66.20;16.10;101023.00;;;;5029767;28;20194;-44
2023/01/05 06:40:55;;;;;;;8.50;3.80;;;15.10;66.20;16.20;101032.00;;;;5029738;28;20171;-45
2023/01/05 06:43:20;;;;;;;7.93;3.70;;;15.00;66.10;15.90;100984.00;;;;5012881;28;20178;-46
2023/01/05 06:45:46;;;;;;;7.60;3.43;;;15.10;66.20;16.20;101035.00;;;;5029922;28;20191;-45
2023/01/05 06:48:12;;;;;;;7.43;3.50;;;15.00;66.10;16.20;100966.00;;;;5012189;28;20175;-45
2023/01/05 06:50:38;;;;;;;6.43;3.33;;;15.10;66.20;16.20;101037.00;;;;5012714;28;20174;-45
2023/01/05 06:53:04;;;;;;;7.67;3.70;;;15.10;66.20;16.20;100958.00;;;;5028315;28;20651;-46
2023/01/05 06:55:30;;;;;;;8.97;3.53;;;15.00;66.00;16.20;101043.00;;;;5013288;28;20225;-46
2023/01/05 06:57:55;;;;;;;7.07;3.77;;;15.00;66.10;16.20;101043.00;;;;5012303;28;20175;-45
2023/01/05 07:00:21;;;;;;;6.83;3.47;;;15.10;66.20;16.20;100957.00;;;;5030363;28;20175;-46
2023/01/05 07:02:47;;;;;;;5.33;2.93;;;15.00;66.80;16.20;101045.00;;;;5013877;28;20195;-45
2023/01/05 07:05:13;;;;;;;8.00;3.77;;;15.10;66.20;16.20;101040.00;;;;5033547;28;20683;-45
2023/01/05 07:07:38;;;;;;;8.20;3.53;;;15.00;66.90;16.20;100999.00;;;;5012947;28;20206;-46
2023/01/05 07:10:05;;;;;;;6.73;3.07;;;15.00;66.20;16.20;100958.00;;;;5013271;28;20159;-47
2023/01/05 07:12:31;;;;;;;6.60;3.30;;;15.00;66.20;16.20;101038.00;;;;5030679;28;20287;-45
2023/01/05 07:14:57;;;;;;;6.70;3.20;;;15.10;66.30;16.20;101043.00;;;;5030790;28;20270;-45
2023/01/05 07:17:22;;;;;;;5.57;3.13;;;15.00;66.20;16.20;100988.00;;;;5030763;28;20633;-45
2023/01/05 07:19:48;;;;;;;5.37;3.20;;;15.00;66.20;16.20;101058.00;;;;5012954;28;20187;-46
2023/01/05 07:22:14;;;;;;;7.20;2.90;;;15.10;66.30;16.20;101050.00;;;;4993850;28;20208;-44
2023/01/05 07:24:39;;;;;;;6.40;3.40;;;15.00;66.20;16.10;101064.00;;;;4992776;28;20660;-46
2023/01/05 07:27:06;;;;;;;7.33;3.30;;;15.00;66.30;16.10;101059.00;;;;4993130;28;20606;-46
2023/01/05 07:29:32;;;;;;;6.17;3.20;;;15.00;66.30;15.90;100985.00;;;;5008585;28;20171;-47
2023/01/05 07:31:58;;;;;;;6.40;3.40;;;15.00;66.40;16.10;100993.00;;;;5008312;28;20576;-44
2023/01/05 07:34:24;;;;;;;6.27;3.40;;;15.00;66.30;16.10;101064.00;;;;5003201;28;20199;-44
2023/01/05 07:36:49;;;;;;;5.67;3.30;;;15.00;66.30;16.10;101075.00;;;;4992788;28;20668;-46
2023/01/05 07:39:15;;;;;;;5.23;3.00;;;15.00;66.30;16.10;101089.00;;;;5008949;28;20251;-47
2023/01/05 07:41:41;;;;;;;5.93;3.00;;;15.00;66.30;16.10;101093.00;;;;5011201;28;20195;-46
2023/01/05 07:44:07;;;;;;;5.07;3.10;;;15.00;66.30;16.10;101076.00;;;;5012179;28;20867;-45
2023/01/05 07:46:33;;;;;;;5.13;2.80;;;15.00;66.40;16.10;101083.00;;;;5009399;28;20247;-46
2023/01/05 07:48:59;;;;;;;5.57;3.07;;;15.00;66.30;16.20;101009.00;;;;5009332;28;20168;-44
2023/01/05 07:51:25;;;;;;;6.40;3.10;;;15.00;66.40;16.20;101091.00;;;;5011728;28;20171;-46
2023/01/05 07:53:52;;;;;;;4.57;3.10;;;15.00;66.40;16.20;101014.00;;;;5009047;28;20558;-46
2023/01/05 07:56:18;;;;;;;5.67;3.13;;;15.00;66.50;16.20;101099.00;;;;5008867;28;20194;-45
2023/01/05 07:58:43;;;;;;;6.00;3.00;;;15.10;66.60;16.20;100998.00;;;;5012021;28;20176;-46
2023/01/05 08:01:11;;;;;;;5.17;3.30;;;15.10;66.30;16.20;101087.00;;;;5016407;28;20642;-45
2023/01/05 08:03:37;;;;;;;6.43;3.00;;;15.10;66.80;16.20;101091.00;;;;5017226;28;20618;-45
2023/01/05 08:06:08;;;;;;;5.83;2.83;;;15.10;66.80;16.20;101094.00;;;;5013070;28;20203;-45
2023/01/05 08:08:34;;;;;;;6.03;2.90;;;15.00;66.70;16.20;101109.00;;;;5008961;28;20262;-46
2023/01/05 08:11:02;;;;;;;5.10;2.60;;;15.10;66.80;16.20;101105.00;;;;5008438;28;20708;-46
2023/01/05 08:16:12;;;;;;;5.13;3.20;;;15.00;66.70;16.10;101122.00;;;;5008439;28;20167;-46
2023/01/05 08:18:38;;;;;;;5.53;2.83;;;15.00;66.70;16.10;101131.00;;;;5008221;28;20561;-47
2023/01/05 08:21:05;;;;;;;6.07;3.00;;;15.00;66.70;16.20;101113.00;;;;5008143;28;20198;-47
2023/01/05 08:23:31;;;;;;;5.17;2.57;;;15.00;66.70;16.10;101051.00;;;;5008002;28;20187;-46
2023/01/05 08:26:09;;;;;;;6.07;2.80;;;15.10;66.80;16.10;101132.00;;;;5007583;28;20250;-44
2023/01/05 08:28:35;;;;;;;5.57;3.00;;;15.00;66.80;16.10;101129.00;;;;5004197;28;20176;-45
2023/01/05 08:31:07;;;;;;;7.33;3.03;;;15.00;66.70;16.10;101063.00;;;;5006574;28;20156;-45
2023/01/05 08:33:33;;;;;;;3.47;2.77;;;15.00;66.80;16.10;101053.00;;;;4990541;28;20190;-45
2023/01/05 08:35:58;;;;;;;5.20;3.00;;;15.00;66.70;16.10;101137.00;;;;5008770;28;20192;-45
2023/01/05 08:38:24;;;;;;;4.80;2.80;;;15.00;66.70;16.10;101054.00;;;;4991760;28;20164;-46
2023/01/05 08:40:50;;;;;;;4.63;2.97;;;15.00;66.70;16.10;101122.00;;;;5009280;28;20160;-45
2023/01/05 08:43:16;;;;;;;5.60;2.80;;;15.00;66.70;16.10;101144.00;;;;5011980;28;20195;-45
2023/01/05 08:45:42;;;;;;;4.20;2.60;;;15.00;66.70;16.10;101152.00;;;;4995428;28;20191;-45
2023/01/05 08:48:09;;;;;;;5.33;2.80;;;15.00;66.70;16.10;101142.00;;;;5012253;28;20163;-44
2023/01/05 08:50:37;;;;;;;4.90;2.90;;;15.00;66.70;16.10;101071.00;;;;5012377;28;20651;-45
2023/01/05 08:53:03;;;;;;;4.53;2.90;;;14.90;66.60;16.10;101153.00;;;;5012048;28;20218;-45
2023/01/05 08:55:28;;;;;;;5.03;2.80;;;14.90;66.60;16.10;101142.00;;;;5011252;28;20206;-45
2023/01/05 08:57:55;;;;;;;4.73;3.00;;;14.90;66.60;15.80;101065.00;;;;5012234;28;20186;-45
2023/01/05 09:00:21;;;;;;;5.03;2.70;;;15.00;66.70;16.10;101165.00;;;;4995756;28;20267;-44
2023/01/05 09:02:47;;;;;;;4.93;2.80;;;15.00;66.70;15.80;101058.00;;;;4980326;28;20195;-44
2023/01/05 09:05:13;;;;;;;4.23;2.60;;;15.00;66.70;16.10;101026.00;;;;5010945;28;20191;-45
2023/01/05 09:07:39;;;;;;;5.03;2.77;;;15.00;66.70;16.10;101165.00;;;;4995801;28;20171;-46
2023/01/05 09:10:06;;;;;;;4.90;2.97;;;15.00;66.70;16.10;101081.00;;;;5011486;28;20628;-45
2023/01/05 09:12:33;;;;;;;5.43;2.77;;;15.00;66.70;16.10;101171.00;;;;5011091;28;20771;-45
2023/01/05 09:14:59;;;;;;;4.13;2.73;;;14.90;66.60;16.10;101181.00;;;;4995101;28;20195;-45
2023/01/05 09:17:25;;;;;;;6.07;3.03;;;15.00;66.70;16.10;101175.00;;;;5012660;28;20668;-45
2023/01/05 09:19:50;;;;;;;4.53;2.83;;;15.00;66.70;16.10;101182.00;;;;5011439;28;20653;-45
2023/01/05 09:22:16;;;;;;;4.40;2.90;;;15.00;66.60;16.10;101191.00;;;;5011003;28;20708;-44
2023/01/05 09:24:42;;;;;;;4.57;2.73;;;15.00;66.60;16.10;101115.00;;;;4994883;28;20199;-44
2023/01/05 09:27:08;;;;;;;5.00;2.60;;;15.00;66.60;16.10;101048.00;;;;4994656;28;20171;-45
2023/01/05 09:29:34;;;;;;;5.13;2.60;;;15.00;66.70;16.10;101099.00;;;;5011404;28;20160;-46
2023/01/05 09:31:59;;;;;;;4.90;2.70;;;15.00;66.70;16.10;101193.00;;;;5011640;28;20193;-46
2023/01/05 09:34:25;;;;;;;8.63;2.87;;;15.00;66.70;16.10;101189.00;;;;4995140;28;20544;-45
2023/01/05 09:36:51;;;;;;;8.47;2.77;;;15.00;67.30;16.10;101123.00;;;;5011079;28;20186;-45
2023/01/05 09:39:17;;;;;;;6.10;2.77;;;15.00;67.50;16.10;101199.00;;;;5011406;28;20176;-46
2023/01/05 09:41:51;;;;;;;6.93;2.83;;;15.10;67.40;16.10;101211.00;;;;5010366;28;20203;-46
2023/01/05 09:44:31;;;;;;;8.93;2.80;;;15.20;67.30;16.20;101103.00;;;;4994517;28;20194;-45
2023/01/05 09:47:23;;;;;;;8.70;2.63;;;15.30;67.00;16.20;101209.00;;;;4994516;28;20163;-45
2023/01/05 09:49:49;;;;;;;9.33;2.77;;;15.50;67.00;16.30;101206.00;;;;5014233;28;20275;-44
2023/01/05 09:52:14;;;;;;;9.03;2.90;;;15.60;66.60;16.40;101107.00;;;;5012772;28;20208;-46
2023/01/05 09:54:40;;;;;;;10.07;2.80;;;15.80;66.40;16.40;101221.00;;;;4996266;28;20187;-45
2023/01/05 09:57:16;;;;;;;11.87;2.97;;;16.00;66.30;16.50;101139.00;;;;4995343;28;20238;-44
2023/01/05 09:59:58;;;;;;;9.57;2.63;;;16.10;66.10;16.70;101145.00;;;;4995392;28;20366;-44
2023/01/05 10:02:27;;;;;;;7.47;2.70;;;16.30;65.80;16.50;101239.00;;;;5010701;28;20305;-45
2023/01/05 10:04:53;;;;;;;7.73;2.83;;;16.50;65.60;16.90;101233.00;;;;4994573;28;20200;-44
2023/01/05 10:07:39;;;;;;;8.97;3.00;;;16.60;65.60;17.00;101237.00;;;;5010560;28;20172;-45
2023/01/05 10:10:16;;;;;;;7.10;2.50;;;16.80;65.40;17.10;101228.00;;;;5010300;28;20175;-45
2023/01/05 10:15:43;;;;;;;9.60;3.00;;;17.10;65.10;17.40;101232.00;;;;4990875;28;20204;-46
2023/01/05 10:18:15;;;;;;;11.00;3.33;;;17.20;65.20;17.50;101155.00;;;;4990647;28;20198;-44
2023/01/05 10:20:52;;;;;;;6.67;3.00;;;17.40;65.20;17.60;101232.00;;;;4990851;28;20168;-45
2023/01/05 10:24:15;;;;;;;8.73;2.67;;;17.50;65.00;17.80;101229.00;;;;5006454;28;20231;-44
2023/01/05 10:27:06;;;;;;;6.37;2.70;;;17.60;65.00;17.90;101237.00;;;;4989747;28;20188;-44
2023/01/05 10:29:47;;;;;;;6.70;2.97;;;17.80;65.00;18.00;101158.00;;;;5005737;28;20219;-45
2023/01/05 10:32:57;;;;;;;8.27;2.80;;;17.90;64.90;18.20;101248.00;;;;4995626;28;20556;-46
2023/01/05 10:35:45;;;;;;;6.90;2.97;;;18.10;64.70;18.30;101163.00;;;;4984698;28;20228;-46
2023/01/05 10:38:38;;;;;;;6.77;2.87;;;18.10;64.70;18.40;101242.00;;;;4991083;28;20790;-44
2023/01/05 10:41:21;;;;;;;10.93;3.40;;;18.20;64.70;18.50;101242.00;;;;4991688;28;20221;-45
2023/01/05 10:43:59;;;;;;;7.77;3.10;;;18.30;64.90;18.30;101254.00;;;;4989989;28;20197;-44
2023/01/05 10:46:25;;;;;;;11.87;3.70;;;18.30;65.10;18.60;101251.00;;;;4989747;28;20161;-46
2023/01/05 10:48:50;;;;;;;9.73;3.60;;;18.30;65.60;18.60;101172.00;;;;5006088;28;20180;-46
2023/01/05 10:51:16;;;;;;;11.43;4.27;;;18.30;66.40;18.70;101249.00;;;;4990187;28;20265;-45
2023/01/05 10:53:42;;;;;;;9.40;3.43;;;18.30;66.40;18.70;101258.00;;;;5006161;28;20307;-46
2023/01/05 10:56:09;;;;;;;12.30;3.80;;;18.30;66.30;18.70;101252.00;;;;4990504;28;20182;-43
2023/01/05 10:58:37;;;;;;;7.43;3.30;;;18.30;66.20;18.70;101173.00;;;;5006688;28;20235;-44
2023/01/05 11:01:30;;;;;;;8.17;3.37;;;18.30;66.40;18.80;101179.00;;;;4992980;28;20184;-45
2023/01/05 11:04:23;;;;;;;11.43;3.60;;;18.20;66.20;18.80;101246.00;;;;5012365;28;20717;-45
2023/01/05 11:06:48;;;;;;;10.60;3.30;;;18.20;66.40;18.70;101258.00;;;;5009095;28;20613;-45
2023/01/05 11:09:22;;;;;;;6.30;3.00;;;18.20;66.30;18.70;101195.00;;;;4993014;28;20230;-45
2023/01/05 11:11:54;;;;;;;7.80;3.43;;;18.20;66.50;18.80;101179.00;;;;5009175;28;20172;-45
2023/01/05 11:14:20;;;;;;;8.37;3.43;;;18.20;66.60;18.70;101254.00;;;;5009382;28;20282;-45
2023/01/05 11:16:49;;;;;;;6.73;3.50;;;18.10;66.60;18.70;101205.00;;;;5008829;28;20255;-45
2023/01/05 11:19:21;;;;;;;7.27;2.90;;;18.10;66.90;18.70;101186.00;;;;5007701;28;20199;-45
2023/01/05 11:21:47;;;;;;;7.17;3.63;;;18.10;66.90;18.70;101205.00;;;;4992531;28;20562;-46
2023/01/05 11:24:31;;;;;;;7.00;3.07;;;18.10;67.00;18.70;101249.00;;;;4976201;28;20195;-45
2023/01/05 11:27:04;;;;;;;5.23;3.00;;;18.00;67.20;18.70;101259.00;;;;5008255;28;20179;-45
2023/01/05 11:29:30;;;;;;;5.80;3.03;;;18.00;67.10;18.70;101171.00;;;;4976470;28;20182;-46
2023/01/05 11:32:04;;;;;;;6.37;2.90;;;17.90;67.10;18.70;101256.00;;;;4976223;28;20180;-46